Weather at Helsinki Vantaa Airport

Public forecast

Using degrees Celsius for public forecast. Weather courtesy of forecast.io.

Current aviation weather report (METAR) for Helsinki Vantaa Airport

Report is more than 6 hours old.

2022/11/14 15:20 (retrieved 2 years ago)

EFHK 141520Z 18006KT 9999 BKN008 OVC012 06/05 Q1023 NOSIG

Aviation forecast (TAF) for Helsinki Vantaa Airport

Forecast is more than 12 hours old.

2023/02/22 20:12 Ammendment (retrieved 1 year ago)

TAF AMD EFHK 222009Z 2220/2318 28003KT CAVOK TEMPO 2220/2307 BKN013 BECMG 2304/2306 21011KT BECMG 2307/2309 5000 -SN BKN009 TEMPO 2309/2318 2500 SN VV012